Time;durP1;ratioP1;P1;durP2;ratioP2;P2;SDS_P1;SDS_P2;PMS_P1;PMS_P2;Temp;Humidity;BMP_temperature;BMP_pressure;BME280_temperature;BME280_humidity;BME280_pressure;Samples;Min_cycle;Max_cycle;Signal;HPM_P1;HPM_P2
2023/04/29 00:01:22;;;;;;;1.67;0.90;;;;;;;;;;5050710;28;20032;-69
2023/04/29 00:03:49;;;;;;;1.17;0.90;;;;;;;;;;5050805;28;20025;-69
2023/04/29 00:06:15;;;;;;;4.07;1.15;;;;;;;;;;5050513;28;20047;-69
2023/04/29 00:08:42;;;;;;;1.90;0.90;;;;;;;;;;5050535;28;20034;-69
2023/04/29 00:11:09;;;;;;;1.60;0.80;;;;;;;;;;5050556;28;20401;-69
2023/04/29 00:13:36;;;;;;;3.97;1.15;;;;;;;;;;5050635;28;20048;-70
2023/04/29 00:16:02;;;;;;;1.08;1.00;;;;;;;;;;5049394;28;20025;-69
2023/04/29 00:18:29;;;;;;;2.45;1.20;;;;;;;;;;5050292;28;20397;-69
2023/04/29 00:20:55;;;;;;;1.10;0.95;;;;;;;;;;5050420;28;20029;-69
2023/04/29 00:23:21;;;;;;;4.53;1.20;;;;;;;;;;5032888;28;20029;-69
2023/04/29 00:25:48;;;;;;;1.85;0.90;;;;;;;;;;5050512;28;20037;-69
2023/04/29 00:28:14;;;;;;;1.23;0.75;;;;;;;;;;5054118;28;20032;-69
2023/04/29 00:30:40;;;;;;;1.27;0.70;;;;;;;;;;5053905;28;20045;-69
2023/04/29 00:33:06;;;;;;;3.85;0.80;;;;;;;;;;5053773;28;20497;-69
2023/04/29 00:35:33;;;;;;;2.05;0.80;;;;;;;;;;5053764;28;20028;-69
2023/04/29 00:37:59;;;;;;;1.75;0.90;;;;;;;;;;5053870;28;20024;-69
2023/04/29 00:40:27;;;;;;;2.47;0.90;;;;;;;;;;5054058;28;20031;-69
2023/04/29 00:42:53;;;;;;;3.78;0.90;;;;;;;;;;5053787;28;20302;-69
2023/04/29 00:45:19;;;;;;;1.08;1.00;;;;;;;;;;5053538;28;20032;-69
2023/04/29 00:47:46;;;;;;;1.60;1.00;;;;;;;;;;5053835;28;20036;-69
2023/04/29 00:50:12;;;;;;;1.85;1.10;;;;;;;;;;5052457;28;20021;-69
2023/04/29 00:52:39;;;;;;;1.77;1.00;;;;;;;;;;5053727;28;20025;-69
2023/04/29 00:55:11;;;;;;;1.52;0.90;;;;;;;;;;5053743;28;20029;-69
2023/04/29 00:57:38;;;;;;;2.53;1.10;;;;;;;;;;5053563;28;20021;-69
2023/04/29 01:00:04;;;;;;;2.53;1.20;;;;;;;;;;5053306;28;20444;-69
2023/04/29 01:02:31;;;;;;;1.42;0.93;;;;;;;;;;5053305;28;20029;-69
2023/04/29 01:04:57;;;;;;;3.25;1.20;;;;;;;;;;5053655;28;20036;-69
2023/04/29 01:07:29;;;;;;;1.90;1.10;;;;;;;;;;5053187;28;20033;-69
2023/04/29 01:10:02;;;;;;;1.08;0.80;;;;;;;;;;5053173;28;20394;-69
2023/04/29 01:12:45;;;;;;;1.20;1.00;;;;;;;;;;5053077;28;20067;-69
2023/04/29 01:15:12;;;;;;;1.90;0.95;;;;;;;;;;5052987;28;20413;-69
2023/04/29 01:17:43;;;;;;;1.90;1.00;;;;;;;;;;5053366;28;20021;-69
2023/04/29 01:20:09;;;;;;;2.00;1.20;;;;;;;;;;5053181;28;20036;-69
2023/04/29 01:22:38;;;;;;;3.83;1.20;;;;;;;;;;5053093;28;20493;-69
2023/04/29 01:25:05;;;;;;;1.40;0.98;;;;;;;;;;5053346;28;20024;-69
2023/04/29 01:27:42;;;;;;;4.05;0.93;;;;;;;;;;5052891;28;20041;-69
2023/04/29 01:30:08;;;;;;;1.58;1.02;;;;;;;;;;5052778;28;20063;-69
2023/04/29 01:32:41;;;;;;;2.35;1.40;;;;;;;;;;5052508;28;20021;-69
2023/04/29 01:35:11;;;;;;;1.30;0.90;;;;;;;;;;5052980;28;20024;-69
2023/04/29 01:37:46;;;;;;;1.77;1.10;;;;;;;;;;5052422;28;20021;-69
2023/04/29 01:40:16;;;;;;;3.63;1.35;;;;;;;;;;5052910;28;20021;-69
2023/04/29 01:42:44;;;;;;;;;;;;;;;;;;5053029;28;20041;-69
2023/04/29 01:45:11;;;;;;;1.17;1.05;;;;;;;;;;5052349;28;19904;-70
2023/04/29 01:47:38;;;;;;;2.00;1.02;;;;;;;;;;5052329;28;20428;-69
2023/04/29 01:50:05;;;;;;;1.52;0.70;;;;;;;;;;5052673;28;20025;-69
2023/04/29 01:52:31;;;;;;;2.88;1.20;;;;;;;;;;5052658;28;20066;-69
2023/04/29 01:54:58;;;;;;;1.70;0.98;;;;;;;;;;5052529;28;20031;-69
2023/04/29 01:57:24;;;;;;;1.58;1.20;;;;;;;;;;5052205;28;20017;-69
2023/04/29 01:59:51;;;;;;;1.50;1.13;;;;;;;;;;5052070;28;20077;-69
2023/04/29 02:02:20;;;;;;;6.30;1.20;;;;;;;;;;5052493;28;20017;-69
2023/04/29 02:04:47;;;;;;;2.70;1.30;;;;;;;;;;5052133;28;20409;-69
2023/04/29 02:07:13;;;;;;;1.25;1.00;;;;;;;;;;5051950;28;20033;-69
2023/04/29 02:09:40;;;;;;;3.78;1.20;;;;;;;;;;5052133;28;20032;-69
2023/04/29 02:12:06;;;;;;;2.50;1.20;;;;;;;;;;5052231;28;20025;-69
2023/04/29 02:14:33;;;;;;;1.75;1.42;;;;;;;;;;5051827;28;20027;-69
2023/04/29 02:16:59;;;;;;;1.30;0.98;;;;;;;;;;5051845;28;20396;-69
2023/04/29 02:19:26;;;;;;;1.27;1.00;;;;;;;;;;5052096;28;20090;-69
2023/04/29 02:21:52;;;;;;;1.90;1.20;;;;;;;;;;5051829;28;20024;-69
2023/04/29 02:24:18;;;;;;;1.85;1.10;;;;;;;;;;5051823;28;20025;-69
2023/04/29 02:26:44;;;;;;;1.10;0.95;;;;;;;;;;5051665;28;20047;-69
2023/04/29 02:29:11;;;;;;;2.28;1.10;;;;;;;;;;5051416;28;20033;-69
2023/04/29 02:31:37;;;;;;;1.92;1.17;;;;;;;;;;5051740;28;20029;-69
2023/04/29 02:34:03;;;;;;;6.50;1.10;;;;;;;;;;5051521;28;20425;-69
2023/04/29 02:36:30;;;;;;;2.53;1.00;;;;;;;;;;5051679;28;20032;-70
2023/04/29 02:38:57;;;;;;;2.92;1.20;;;;;;;;;;5051686;28;20021;-69
2023/04/29 02:41:24;;;;;;;2.92;1.15;;;;;;;;;;5051596;28;20037;-69
2023/04/29 02:43:50;;;;;;;1.55;1.20;;;;;;;;;;5050035;28;20090;-69
2023/04/29 02:46:17;;;;;;;2.03;1.50;;;;;;;;;;5051378;28;20040;-69
2023/04/29 02:48:44;;;;;;;1.10;1.00;;;;;;;;;;5051356;28;20021;-69
2023/04/29 02:51:10;;;;;;;1.67;1.27;;;;;;;;;;5051595;28;20070;-69
2023/04/29 02:53:36;;;;;;;2.00;1.30;;;;;;;;;;5051339;28;20382;-69
2023/04/29 02:56:04;;;;;;;2.15;1.15;;;;;;;;;;5051156;28;20095;-69
2023/04/29 02:58:30;;;;;;;2.42;1.15;;;;;;;;;;5051074;28;20486;-69
2023/04/29 03:00:56;;;;;;;1.33;1.23;;;;;;;;;;5051701;28;20025;-69
2023/04/29 03:03:23;;;;;;;1.23;1.13;;;;;;;;;;5051146;28;20429;-69
2023/04/29 03:05:49;;;;;;;3.08;1.35;;;;;;;;;;5051170;28;20496;-69
2023/04/29 03:08:15;;;;;;;1.98;1.20;;;;;;;;;;5051333;28;20025;-69
2023/04/29 03:10:42;;;;;;;2.38;1.15;;;;;;;;;;5051069;28;20031;-69
2023/04/29 03:13:08;;;;;;;1.50;1.20;;;;;;;;;;5051130;28;20066;-70
2023/04/29 03:15:35;;;;;;;2.35;1.27;;;;;;;;;;5050983;28;20029;-69
2023/04/29 03:18:03;;;;;;;2.40;1.30;;;;;;;;;;5050984;28;20017;-68
2023/04/29 03:20:31;;;;;;;1.17;1.08;;;;;;;;;;5050970;28;20498;-69
2023/04/29 03:22:58;;;;;;;2.13;1.10;;;;;;;;;;5050927;28;20482;-69
2023/04/29 03:25:25;;;;;;;1.77;1.20;;;;;;;;;;5051241;28;20013;-69
2023/04/29 03:27:51;;;;;;;3.70;1.30;;;;;;;;;;5051023;28;20025;-69
2023/04/29 03:30:17;;;;;;;1.10;1.00;;;;;;;;;;5050845;28;20052;-69
2023/04/29 03:32:44;;;;;;;2.20;1.20;;;;;;;;;;5050750;28;20032;-69
2023/04/29 03:35:10;;;;;;;4.38;1.38;;;;;;;;;;5051115;28;20029;-69
2023/04/29 03:37:37;;;;;;;2.67;1.23;;;;;;;;;;5049791;28;20025;-69
2023/04/29 03:40:05;;;;;;;2.65;1.10;;;;;;;;;;5050813;28;20858;-69
2023/04/29 03:42:31;;;;;;;1.85;1.10;;;;;;;;;;5050551;28;20013;-69
2023/04/29 03:44:57;;;;;;;2.67;1.25;;;;;;;;;;5050655;28;20040;-69
2023/04/29 03:47:24;;;;;;;1.83;1.30;;;;;;;;;;5050742;28;20045;-69
2023/04/29 03:49:50;;;;;;;3.42;1.50;;;;;;;;;;5050846;28;20436;-69
2023/04/29 03:52:16;;;;;;;2.30;1.30;;;;;;;;;;5050958;28;20039;-69
2023/04/29 03:54:43;;;;;;;2.90;1.15;;;;;;;;;;5050710;28;20047;-69
2023/04/29 03:57:09;;;;;;;4.90;1.50;;;;;;;;;;5050378;28;20413;-69
2023/04/29 03:59:35;;;;;;;1.67;1.10;;;;;;;;;;5050721;28;20502;-69
2023/04/29 04:02:02;;;;;;;2.47;1.20;;;;;;;;;;5052765;28;20028;-69
2023/04/29 04:04:28;;;;;;;3.25;1.33;;;;;;;;;;5054695;28;20097;-69
2023/04/29 04:06:54;;;;;;;2.53;1.13;;;;;;;;;;5054328;28;20100;-70
2023/04/29 04:09:21;;;;;;;2.10;1.25;;;;;;;;;;5054535;28;20025;-69
2023/04/29 04:11:47;;;;;;;1.80;1.45;;;;;;;;;;5054325;28;20023;-69
2023/04/29 04:14:13;;;;;;;1.45;1.27;;;;;;;;;;5054390;28;20021;-69
2023/04/29 04:16:40;;;;;;;2.20;1.35;;;;;;;;;;5054372;28;20028;-69
2023/04/29 04:19:06;;;;;;;1.80;1.50;;;;;;;;;;5054432;28;20050;-69
2023/04/29 04:21:32;;;;;;;1.67;1.20;;;;;;;;;;5054300;28;20032;-69
2023/04/29 04:23:59;;;;;;;3.30;1.30;;;;;;;;;;5054168;28;20422;-69
2023/04/29 04:26:25;;;;;;;1.70;1.35;;;;;;;;;;5054148;28;20103;-69
2023/04/29 04:28:51;;;;;;;3.03;1.50;;;;;;;;;;5053914;28;20478;-69
2023/04/29 04:31:18;;;;;;;1.85;1.50;;;;;;;;;;5053911;28;20302;-69
2023/04/29 04:33:44;;;;;;;3.20;1.40;;;;;;;;;;5054168;28;20099;-68
2023/04/29 04:36:10;;;;;;;2.05;1.33;;;;;;;;;;5052805;28;20025;-68
2023/04/29 04:38:37;;;;;;;3.40;1.30;;;;;;;;;;5053895;28;20024;-69
2023/04/29 04:41:06;;;;;;;3.88;1.40;;;;;;;;;;5053783;28;20025;-70
2023/04/29 04:43:33;;;;;;;1.52;1.30;;;;;;;;;;5054032;28;20015;-69
2023/04/29 04:45:59;;;;;;;3.25;1.48;;;;;;;;;;5053570;28;20055;-69
2023/04/29 04:48:26;;;;;;;2.28;1.10;;;;;;;;;;5054074;28;20025;-69
2023/04/29 04:50:52;;;;;;;1.60;1.35;;;;;;;;;;5053564;28;20029;-69
2023/04/29 04:53:18;;;;;;;3.30;1.15;;;;;;;;;;5053504;28;20497;-69
2023/04/29 04:55:45;;;;;;;2.47;1.30;;;;;;;;;;5053330;28;20094;-69
2023/04/29 04:58:11;;;;;;;3.58;1.40;;;;;;;;;;5053494;28;20436;-69
2023/04/29 05:00:38;;;;;;;1.65;1.10;;;;;;;;;;5053402;28;20024;-69
2023/04/29 05:03:04;;;;;;;1.35;1.25;;;;;;;;;;5053566;28;20033;-69
2023/04/29 05:05:32;;;;;;;3.30;1.40;;;;;;;;;;5053248;28;20025;-69
2023/04/29 05:07:59;;;;;;;3.20;1.55;;;;;;;;;;5053239;28;20036;-69
2023/04/29 05:10:25;;;;;;;2.95;1.13;;;;;;;;;;5053456;28;20036;-69
2023/04/29 05:12:52;;;;;;;1.30;1.20;;;;;;;;;;5053142;28;20028;-69
2023/04/29 05:15:18;;;;;;;2.00;1.00;;;;;;;;;;5053363;28;20048;-69
2023/04/29 05:17:44;;;;;;;3.88;1.05;;;;;;;;;;5053214;28;20031;-69
2023/04/29 05:20:11;;;;;;;1.98;1.30;;;;;;;;;;5051803;28;20410;-69
2023/04/29 05:22:37;;;;;;;1.75;1.10;;;;;;;;;;5053218;28;20025;-69
2023/04/29 05:25:04;;;;;;;4.20;1.40;;;;;;;;;;5053012;28;20033;-69
2023/04/29 05:27:30;;;;;;;5.35;1.20;;;;;;;;;;5052898;28;20041;-69
2023/04/29 05:29:57;;;;;;;2.15;1.10;;;;;;;;;;5052774;28;20417;-69
2023/04/29 05:32:23;;;;;;;3.88;1.50;;;;;;;;;;5052822;28;20044;-69
2023/04/29 05:34:50;;;;;;;1.73;1.13;;;;;;;;;;5052750;28;20025;-69
2023/04/29 05:37:16;;;;;;;1.55;1.17;;;;;;;;;;5052454;28;20029;-70
2023/04/29 05:39:42;;;;;;;1.58;1.13;;;;;;;;;;5052924;28;20367;-69
2023/04/29 05:42:09;;;;;;;1.63;1.10;;;;;;;;;;5052593;28;20037;-69
2023/04/29 05:44:35;;;;;;;2.05;1.35;;;;;;;;;;5052551;28;20033;-69
2023/04/29 05:47:02;;;;;;;1.45;0.95;;;;;;;;;;5052445;28;20029;-69
2023/04/29 05:49:28;;;;;;;3.45;1.10;;;;;;;;;;5052561;28;20020;-69
2023/04/29 05:51:54;;;;;;;2.83;1.23;;;;;;;;;;5052429;28;20048;-69
2023/04/29 05:54:21;;;;;;;1.63;1.17;;;;;;;;;;5052590;28;20027;-69
2023/04/29 05:56:47;;;;;;;2.15;1.58;;;;;;;;;;5052470;28;20025;-69
2023/04/29 05:59:13;;;;;;;2.25;1.20;;;;;;;;;;5052318;28;20478;-69
2023/04/29 06:01:39;;;;;;;7.78;1.30;;;;;;;;;;5052079;28;20036;-69
2023/04/29 06:04:06;;;;;;;1.85;1.08;;;;;;;;;;5052311;28;20031;-69
2023/04/29 06:06:33;;;;;;;2.33;1.20;;;;;;;;;;5051849;28;20090;-70
2023/04/29 06:09:00;;;;;;;2.63;1.27;;;;;;;;;;5051121;28;20059;-69
2023/04/29 06:11:26;;;;;;;1.45;1.13;;;;;;;;;;5052144;28;20447;-69
2023/04/29 06:13:53;;;;;;;2.75;1.30;;;;;;;;;;5052067;28;20050;-69
2023/04/29 06:16:19;;;;;;;3.75;1.20;;;;;;;;;;5051832;28;20416;-69
2023/04/29 06:18:45;;;;;;;1.77;1.33;;;;;;;;;;5051984;28;20489;-69
2023/04/29 06:21:12;;;;;;;1.80;1.10;;;;;;;;;;5051765;28;20029;-69
2023/04/29 06:23:38;;;;;;;3.28;1.10;;;;;;;;;;5051753;28;20021;-69
2023/04/29 06:26:04;;;;;;;2.20;1.23;;;;;;;;;;5051638;28;20497;-69
2023/04/29 06:28:31;;;;;;;1.27;1.13;;;;;;;;;;5051889;28;20508;-69
2023/04/29 06:30:57;;;;;;;1.92;1.30;;;;;;;;;;5051747;28;20055;-69
2023/04/29 06:33:23;;;;;;;2.08;1.25;;;;;;;;;;5051631;28;20039;-69
2023/04/29 06:35:50;;;;;;;5.03;1.38;;;;;;;;;;5051592;28;20070;-69
2023/04/29 06:38:16;;;;;;;2.08;1.42;;;;;;;;;;5051602;28;20091;-69
2023/04/29 06:40:42;;;;;;;2.38;1.50;;;;;;;;;;5051489;28;20436;-69
2023/04/29 06:43:08;;;;;;;2.22;1.10;;;;;;;;;;5051575;28;20028;-69
2023/04/29 06:45:35;;;;;;;3.42;1.45;;;;;;;;;;5051469;28;20031;-69
2023/04/29 06:48:02;;;;;;;3.03;1.55;;;;;;;;;;5051893;28;20040;-69
2023/04/29 06:50:28;;;;;;;2.53;1.27;;;;;;;;;;5051416;28;20032;-69
2023/04/29 06:52:55;;;;;;;3.13;1.40;;;;;;;;;;5051311;28;20033;-69
2023/04/29 06:55:21;;;;;;;9.55;1.73;;;;;;;;;;5050159;28;20021;-69
2023/04/29 06:57:47;;;;;;;2.42;1.52;;;;;;;;;;5051334;28;20512;-69
2023/04/29 07:00:14;;;;;;;2.97;1.60;;;;;;;;;;5051394;28;20032;-69
2023/04/29 07:02:41;;;;;;;2.63;1.40;;;;;;;;;;5051102;28;20397;-69
2023/04/29 07:05:07;;;;;;;4.82;1.67;;;;;;;;;;5051400;28;20023;-69
2023/04/29 07:07:33;;;;;;;2.17;1.58;;;;;;;;;;5051088;28;20387;-69
2023/04/29 07:10:00;;;;;;;5.90;1.70;;;;;;;;;;5050973;28;20025;-70
2023/04/29 07:12:26;;;;;;;4.47;1.80;;;;;;;;;;5051217;28;20025;-69
2023/04/29 07:14:53;;;;;;;4.35;1.70;;;;;;;;;;5051278;28;20025;-69
2023/04/29 07:17:19;;;;;;;3.42;1.98;;;;;;;;;;5050901;28;20025;-69
2023/04/29 07:19:45;;;;;;;4.93;1.90;;;;;;;;;;5051071;28;20021;-69
2023/04/29 07:22:12;;;;;;;3.85;1.83;;;;;;;;;;5051157;28;20025;-69
2023/04/29 07:24:38;;;;;;;4.05;1.83;;;;;;;;;;5051154;28;20386;-69
2023/04/29 07:27:04;;;;;;;3.80;1.60;;;;;;;;;;5051250;28;20087;-69
2023/04/29 07:29:31;;;;;;;4.05;1.75;;;;;;;;;;5051076;28;20067;-69
2023/04/29 07:31:57;;;;;;;7.80;1.80;;;;;;;;;;5049713;28;20029;-69
2023/04/29 07:34:24;;;;;;;2.92;1.80;;;;;;;;;;5051068;28;20032;-69
2023/04/29 07:36:50;;;;;;;4.93;1.55;;;;;;;;;;5052556;28;20154;-69
2023/04/29 07:39:17;;;;;;;6.13;1.60;;;;;;;;;;5055385;28;20029;-70
2023/04/29 07:41:43;;;;;;;1.50;1.25;;;;;;;;;;5055112;28;20025;-69
2023/04/29 07:44:09;;;;;;;5.30;1.90;;;;;;;;;;5055183;28;20021;-69
2023/04/29 07:46:36;;;;;;;6.25;2.20;;;;;;;;;;5054790;28;20036;-69
2023/04/29 07:49:03;;;;;;;5.05;1.90;;;;;;;;;;5054727;28;20013;-70
2023/04/29 07:51:30;;;;;;;3.72;1.77;;;;;;;;;;5055042;28;20021;-69
2023/04/29 07:53:57;;;;;;;3.63;1.90;;;;;;;;;;5055051;28;20484;-70
2023/04/29 07:56:24;;;;;;;3.00;1.80;;;;;;;;;;5054939;28;20029;-70
2023/04/29 07:58:51;;;;;;;4.75;2.05;;;;;;;;;;5054622;28;20039;-70
2023/04/29 08:01:17;;;;;;;3.97;2.25;;;;;;;;;;5054707;28;20031;-69
2023/04/29 08:03:44;;;;;;;3.28;2.03;;;;;;;;;;5054399;28;20032;-70
2023/04/29 08:06:10;;;;;;;3.75;2.13;;;;;;;;;;5054402;28;20025;-70
2023/04/29 08:08:37;;;;;;;2.47;2.03;;;;;;;;;;5054472;28;20485;-70
2023/04/29 08:11:03;;;;;;;2.42;2.08;;;;;;;;;;5054262;28;20017;-69
2023/04/29 08:13:30;;;;;;;3.72;2.55;;;;;;;;;;5054792;28;20029;-70
2023/04/29 08:15:56;;;;;;;3.47;1.70;;;;;;;;;;5054172;28;20074;-70
2023/04/29 08:18:22;;;;;;;5.03;1.92;;;;;;;;;;5054345;28;20021;-70
2023/04/29 08:20:50;;;;;;;3.38;2.08;;;;;;;;;;5054444;28;20033;-70
2023/04/29 08:23:16;;;;;;;2.88;2.53;;;;;;;;;;5054172;28;20013;-70
2023/04/29 08:25:42;;;;;;;7.45;2.63;;;;;;;;;;5053066;28;20035;-70
2023/04/29 08:28:09;;;;;;;5.63;2.38;;;;;;;;;;5053983;28;20566;-70
2023/04/29 08:30:39;;;;;;;3.70;2.78;;;;;;;;;;5052954;28;20055;-69
2023/04/29 08:33:07;;;;;;;4.13;2.47;;;;;;;;;;5052527;28;20045;-70
2023/04/29 08:35:33;;;;;;;3.60;2.45;;;;;;;;;;5052821;28;20023;-70
2023/04/29 08:38:00;;;;;;;7.40;2.85;;;;;;;;;;5052590;28;20400;-70
2023/04/29 08:40:27;;;;;;;4.43;2.70;;;;;;;;;;5053131;28;20037;-69
2023/04/29 08:42:54;;;;;;;3.88;2.70;;;;;;;;;;5053047;28;20021;-69
2023/04/29 08:45:22;;;;;;;3.53;2.50;;;;;;;;;;5052394;28;20027;-70
2023/04/29 08:47:50;;;;;;;6.00;2.60;;;;;;;;;;5051610;28;20401;-70
2023/04/29 08:50:17;;;;;;;5.80;2.30;;;;;;;;;;5052491;28;20028;-69
2023/04/29 08:52:43;;;;;;;5.45;2.65;;;;;;;;;;5052465;28;20025;-69
2023/04/29 08:55:09;;;;;;;2.88;2.58;;;;;;;;;;5052429;28;20481;-70
2023/04/29 08:57:39;;;;;;;3.67;2.55;;;;;;;;;;5052334;28;20032;-70
2023/04/29 09:00:07;;;;;;;5.18;2.58;;;;;;;;;;5052502;28;20082;-70
2023/04/29 09:02:38;;;;;;;4.53;2.53;;;;;;;;;;5052433;28;20033;-69
2023/04/29 09:05:08;;;;;;;3.72;2.33;;;;;;;;;;5052412;28;20488;-69
2023/04/29 09:07:35;;;;;;;3.17;2.53;;;;;;;;;;5052395;28;20048;-70
2023/04/29 09:10:02;;;;;;;4.35;2.63;;;;;;;;;;5052027;28;20029;-70
2023/04/29 09:12:29;;;;;;;3.85;2.50;;;;;;;;;;5052207;28;20405;-70
2023/04/29 09:14:56;;;;;;;3.40;2.58;;;;;;;;;;5052110;28;20426;-69
2023/04/29 09:17:38;;;;;;;7.55;3.00;;;;;;;;;;5052210;28;20044;-70
2023/04/29 09:20:19;;;;;;;4.82;3.40;;;;;;;;;;5052261;28;20043;-70
2023/04/29 09:22:49;;;;;;;4.30;3.33;;;;;;;;;;5052125;28;20040;-70
2023/04/29 09:25:15;;;;;;;4.60;3.45;;;;;;;;;;5051962;28;20545;-70
2023/04/29 09:27:42;;;;;;;3.95;2.80;;;;;;;;;;5051968;28;20032;-70
2023/04/29 09:30:09;;;;;;;3.67;2.17;;;;;;;;;;5011123;28;1180735;-70
2023/04/29 09:32:36;;;;;;;3.85;2.20;;;;;;;;;;5052998;28;20267;-70
2023/04/29 09:35:20;;;;;;;3.83;2.25;;;;;;;;;;5053259;28;20088;-70
2023/04/29 09:37:47;;;;;;;4.10;2.05;;;;;;;;;;5052927;28;20027;-70
2023/04/29 09:40:29;;;;;;;5.75;2.05;;;;;;;;;;5052955;28;20021;-70
2023/04/29 09:42:56;;;;;;;2.13;1.20;;;;;;;;;;5052930;28;20569;-70
2023/04/29 09:45:35;;;;;;;3.05;1.20;;;;;;;;;;5052500;28;20025;-70
2023/04/29 09:48:02;;;;;;;1.73;1.38;;;;;;;;;;5052549;28;20043;-70
2023/04/29 09:50:29;;;;;;;3.72;1.42;;;;;;;;;;5051369;28;20025;-70
2023/04/29 09:52:55;;;;;;;2.40;1.40;;;;;;;;;;5052458;28;20029;-70
2023/04/29 09:55:21;;;;;;;2.78;1.40;;;;;;;;;;5052562;28;20036;-70
2023/04/29 09:57:48;;;;;;;1.88;1.33;;;;;;;;;;5052391;28;20024;-70
2023/04/29 10:00:14;;;;;;;1.55;1.00;;;;;;;;;;5051452;28;20047;-70
2023/04/29 10:02:48;;;;;;;1.88;1.30;;;;;;;;;;5052303;28;20017;-70
2023/04/29 10:05:15;;;;;;;4.50;1.20;;;;;;;;;;5052314;28;20404;-70
2023/04/29 10:07:42;;;;;;;2.25;1.48;;;;;;;;;;5052196;28;20033;-70
2023/04/29 10:10:10;;;;;;;2.42;1.48;;;;;;;;;;5052369;28;20029;-70
2023/04/29 10:12:39;;;;;;;3.25;1.60;;;;;;;;;;5052129;28;20021;-70
2023/04/29 10:15:22;;;;;;;2.15;1.42;;;;;;;;;;5052125;28;20031;-70
2023/04/29 10:17:52;;;;;;;1.90;1.70;;;;;;;;;;5051963;28;20402;-70
2023/04/29 10:20:25;;;;;;;2.20;1.67;;;;;;;;;;5052240;28;20017;-70
2023/04/29 10:22:53;;;;;;;2.05;1.80;;;;;;;;;;5051748;28;20029;-71
2023/04/29 10:25:20;;;;;;;7.45;2.13;;;;;;;;;;5051834;28;20498;-70
2023/04/29 10:27:47;;;;;;;3.05;1.80;;;;;;;;;;5051684;28;20047;-70
2023/04/29 10:30:17;;;;;;;3.22;1.92;;;;;;;;;;5051680;28;20551;-69
2023/04/29 10:32:45;;;;;;;2.83;1.70;;;;;;;;;;5051664;28;20401;-70
2023/04/29 10:35:13;;;;;;;3.70;1.90;;;;;;;;;;5051749;28;20028;-70
2023/04/29 10:37:40;;;;;;;2.47;2.00;;;;;;;;;;5051656;28;20017;-70
2023/04/29 10:40:14;;;;;;;2.33;1.65;;;;;;;;;;5051745;28;20033;-70
2023/04/29 10:42:51;;;;;;;2.58;1.98;;;;;;;;;;5051328;28;20405;-71
2023/04/29 10:45:36;;;;;;;2.78;1.58;;;;;;;;;;5051342;28;20025;-70
2023/04/29 10:48:04;;;;;;;3.50;1.70;;;;;;;;;;5051486;28;20029;-70
2023/04/29 10:50:44;;;;;;;2.50;1.60;;;;;;;;;;5051439;28;20490;-71
2023/04/29 10:53:10;;;;;;;6.00;1.60;;;;;;;;;;5051768;28;20017;-71
2023/04/29 10:55:37;;;;;;;3.15;1.67;;;;;;;;;;5051370;28;20035;-71
2023/04/29 10:58:04;;;;;;;2.28;1.60;;;;;;;;;;5051177;28;20033;-71
2023/04/29 11:00:32;;;;;;;2.33;1.58;;;;;;;;;;5050184;28;20396;-71
2023/04/29 11:02:59;;;;;;;3.90;1.80;;;;;;;;;;5051343;28;20394;-71
2023/04/29 11:05:35;;;;;;;9.57;1.80;;;;;;;;;;5051134;28;20424;-71
2023/04/29 11:08:25;;;;;;;3.65;1.77;;;;;;;;;;5049998;28;20062;-72
2023/04/29 11:11:03;;;;;;;3.87;1.70;;;;;;;;;;5050941;28;20029;-72
2023/04/29 11:13:32;;;;;;;2.17;1.58;;;;;;;;;;5051129;28;20481;-72
2023/04/29 11:16:07;;;;;;;2.15;1.50;;;;;;;;;;5051263;28;20070;-71
2023/04/29 11:18:35;;;;;;;2.13;1.60;;;;;;;;;;5050981;28;20029;-71
2023/04/29 11:21:04;;;;;;;2.55;1.60;;;;;;;;;;5051261;28;20044;-71
2023/04/29 11:23:31;;;;;;;1.70;1.40;;;;;;;;;;5051201;28;20024;-70
2023/04/29 11:25:57;;;;;;;1.25;1.15;;;;;;;;;;5050599;28;20024;-71
2023/04/29 11:28:23;;;;;;;1.95;1.27;;;;;;;;;;5051071;28;20501;-71
2023/04/29 11:30:50;;;;;;;1.77;1.17;;;;;;;;;;5050691;28;20063;-71
2023/04/29 11:33:16;;;;;;;1.40;1.30;;;;;;;;;;5050784;28;20051;-71
2023/04/29 11:35:43;;;;;;;2.65;1.20;;;;;;;;;;5051143;28;20035;-71
2023/04/29 11:38:09;;;;;;;1.77;1.40;;;;;;;;;;5050937;28;20441;-72
2023/04/29 11:40:35;;;;;;;1.42;1.30;;;;;;;;;;5050633;28;20391;-72
2023/04/29 11:43:02;;;;;;;2.67;1.13;;;;;;;;;;5050944;28;20039;-72
2023/04/29 11:45:28;;;;;;;1.73;1.20;;;;;;;;;;5030796;28;20464;-72
2023/04/29 11:47:54;;;;;;;1.45;1.10;;;;;;;;;;5030799;28;20029;-71
2023/04/29 11:50:21;;;;;;;2.17;1.30;;;;;;;;;;5030968;28;20021;-71
2023/04/29 11:52:48;;;;;;;1.25;0.90;;;;;;;;;;5030847;28;20017;-71
2023/04/29 11:55:14;;;;;;;3.47;1.00;;;;;;;;;;5030532;28;20028;-71
2023/04/29 11:57:41;;;;;;;1.85;0.93;;;;;;;;;;5031007;28;20034;-71
2023/04/29 12:00:11;;;;;;;1.27;0.80;;;;;;;;;;5034585;28;20021;-71
2023/04/29 12:02:38;;;;;;;;;;;;;;;;;;5051456;28;20031;-71
2023/04/29 12:05:07;;;;;;;2.00;0.80;;;;;;;;;;5051160;28;19905;-71
2023/04/29 12:07:35;;;;;;;1.60;0.98;;;;;;;;;;5050640;28;20044;-71
2023/04/29 12:10:02;;;;;;;1.92;1.00;;;;;;;;;;5050613;28;20029;-71
2023/04/29 12:12:30;;;;;;;1.23;0.80;;;;;;;;;;5051141;28;20024;-71
2023/04/29 12:14:56;;;;;;;2.45;1.20;;;;;;;;;;5051081;28;20033;-71
2023/04/29 12:17:23;;;;;;;2.08;1.17;;;;;;;;;;5050614;28;20047;-71
2023/04/29 12:19:50;;;;;;;4.75;1.00;;;;;;;;;;5050451;28;20029;-71
2023/04/29 12:22:16;;;;;;;1.00;0.90;;;;;;;;;;5051355;28;20035;-70
2023/04/29 12:24:43;;;;;;;2.72;0.80;;;;;;;;;;5054225;28;20031;-71
2023/04/29 12:27:09;;;;;;;5.97;0.90;;;;;;;;;;5054183;28;20051;-71
2023/04/29 12:29:36;;;;;;;3.22;1.15;;;;;;;;;;5054140;28;20571;-70
2023/04/29 12:32:03;;;;;;;1.15;0.80;;;;;;;;;;5054120;28;20060;-71
2023/04/29 12:34:30;;;;;;;2.05;0.93;;;;;;;;;;5053963;28;20045;-70
2023/04/29 12:36:59;;;;;;;1.55;0.98;;;;;;;;;;5053895;28;20444;-71
2023/04/29 12:39:26;;;;;;;3.45;0.80;;;;;;;;;;5052398;28;20500;-71
2023/04/29 12:41:57;;;;;;;1.05;0.80;;;;;;;;;;5053809;28;20029;-71
2023/04/29 12:44:24;;;;;;;1.08;0.80;;;;;;;;;;5054095;28;20027;-71
2023/04/29 12:46:51;;;;;;;0.98;0.88;;;;;;;;;;5053857;28;20031;-70
2023/04/29 12:49:19;;;;;;;2.15;0.80;;;;;;;;;;5053760;28;20027;-70
2023/04/29 12:51:45;;;;;;;1.88;0.77;;;;;;;;;;5053639;28;20498;-70
2023/04/29 12:54:11;;;;;;;0.80;0.80;;;;;;;;;;5053414;28;20417;-71
2023/04/29 12:56:38;;;;;;;1.35;0.73;;;;;;;;;;5053419;28;20029;-70
2023/04/29 12:59:08;;;;;;;1.02;0.80;;;;;;;;;;5053964;28;20029;-71
2023/04/29 13:01:38;;;;;;;2.03;0.90;;;;;;;;;;5053500;28;20082;-71
2023/04/29 13:04:07;;;;;;;2.33;0.90;;;;;;;;;;5053764;28;20031;-71
2023/04/29 13:06:38;;;;;;;0.85;0.70;;;;;;;;;;5052128;28;20036;-70
2023/04/29 13:09:04;;;;;;;;;;;;;;;;;;5053634;28;20420;-70
2023/04/29 13:11:30;;;;;;;1.17;0.85;;;;;;;;;;5053235;28;19908;-70
2023/04/29 13:13:57;;;;;;;1.30;0.65;;;;;;;;;;5053342;28;20432;-70
2023/04/29 13:16:24;;;;;;;2.15;0.80;;;;;;;;;;5053189;28;20099;-70
2023/04/29 13:18:50;;;;;;;6.32;1.30;;;;;;;;;;5053117;28;20024;-70
2023/04/29 13:21:16;;;;;;;4.57;0.80;;;;;;;;;;5053110;28;20033;-70
2023/04/29 13:23:43;;;;;;;1.65;0.90;;;;;;;;;;5053334;28;20066;-70
2023/04/29 13:26:11;;;;;;;2.67;1.20;;;;;;;;;;5053105;28;20031;-71
2023/04/29 13:28:37;;;;;;;2.75;0.98;;;;;;;;;;5052558;28;20035;-70
2023/04/29 13:31:03;;;;;;;1.17;0.90;;;;;;;;;;5052735;28;20045;-71
2023/04/29 13:33:30;;;;;;;2.83;1.10;;;;;;;;;;5052402;28;20082;-71
2023/04/29 13:35:56;;;;;;;3.28;0.82;;;;;;;;;;5052100;28;20474;-71
2023/04/29 13:38:22;;;;;;;1.00;0.70;;;;;;;;;;5053301;28;20066;-71
2023/04/29 13:40:49;;;;;;;1.65;0.70;;;;;;;;;;5052858;28;20031;-71
2023/04/29 13:43:15;;;;;;;0.98;0.80;;;;;;;;;;5052719;28;20021;-71
2023/04/29 13:45:41;;;;;;;1.27;0.80;;;;;;;;;;5052691;28;20039;-70
2023/04/29 13:48:08;;;;;;;1.15;0.80;;;;;;;;;;5052559;28;20044;-70
2023/04/29 13:50:34;;;;;;;1.05;0.90;;;;;;;;;;5052427;28;20029;-71
2023/04/29 13:53:01;;;;;;;1.15;0.80;;;;;;;;;;5052540;28;20021;-70
2023/04/29 13:55:28;;;;;;;2.28;0.90;;;;;;;;;;5052412;28;20086;-70
2023/04/29 13:57:54;;;;;;;1.35;0.80;;;;;;;;;;5051146;28;20045;-71
2023/04/29 14:00:21;;;;;;;3.80;0.90;;;;;;;;;;5052491;28;20025;-70
2023/04/29 14:02:47;;;;;;;1.67;0.90;;;;;;;;;;5052378;28;20033;-71
2023/04/29 14:05:14;;;;;;;1.52;0.93;;;;;;;;;;5052295;28;20032;-70
2023/04/29 14:07:40;;;;;;;0.73;0.73;;;;;;;;;;5052355;28;20063;-71
2023/04/29 14:10:06;;;;;;;0.82;0.60;;;;;;;;;;5052268;28;20018;-71
2023/04/29 14:12:33;;;;;;;1.20;0.60;;;;;;;;;;5052462;28;20032;-71
2023/04/29 14:14:59;;;;;;;1.83;0.82;;;;;;;;;;5052397;28;20031;-71
2023/04/29 14:17:26;;;;;;;0.70;0.70;;;;;;;;;;5052097;28;20029;-70
2023/04/29 14:19:52;;;;;;;1.00;0.70;;;;;;;;;;5052069;28;20409;-70
2023/04/29 14:22:18;;;;;;;0.75;0.75;;;;;;;;;;5052137;28;20025;-71
2023/04/29 14:24:45;;;;;;;2.05;0.90;;;;;;;;;;5052039;28;20029;-71
2023/04/29 14:27:11;;;;;;;1.60;0.70;;;;;;;;;;5052127;28;20040;-70
2023/04/29 14:29:38;;;;;;;1.27;0.80;;;;;;;;;;5052074;28;20037;-71
2023/04/29 14:32:06;;;;;;;2.60;0.90;;;;;;;;;;5051885;28;20062;-70
2023/04/29 14:34:32;;;;;;;3.25;1.23;;;;;;;;;;5051670;28;20516;-71
2023/04/29 14:36:59;;;;;;;1.63;0.90;;;;;;;;;;5051814;28;20021;-71
2023/04/29 14:39:26;;;;;;;5.35;1.73;;;;;;;;;;5050516;28;20024;-71
2023/04/29 14:41:52;;;;;;;1.52;1.00;;;;;;;;;;5052094;28;20044;-71
2023/04/29 14:44:18;;;;;;;2.92;0.98;;;;;;;;;;5051472;28;20025;-71